sensor_id;sensor_type;location;lat;lon;timestamp;pressure;altitude;pressure_sealevel;temperature;humidity
62800;BME280;48842;51.046;13.796;2022-10-16T00:01:41;100110.09;;;17.89;69.51
62800;BME280;48842;51.046;13.796;2022-10-16T00:04:06;100114.50;;;17.88;69.62
62800;BME280;48842;51.046;13.796;2022-10-16T00:06:32;100111.91;;;17.87;69.69
62800;BME280;48842;51.046;13.796;2022-10-16T00:08:57;100118.09;;;17.87;69.67
62800;BME280;48842;51.046;13.796;2022-10-16T00:11:24;100115.44;;;17.87;69.88
62800;BME280;48842;51.046;13.796;2022-10-16T00:13:52;100118.91;;;17.89;69.68
62800;BME280;48842;51.046;13.796;2022-10-16T00:16:19;100118.91;;;17.89;69.83
62800;BME280;48842;51.046;13.796;2022-10-16T00:18:45;100122.47;;;17.88;69.86
62800;BME280;48842;51.046;13.796;2022-10-16T00:21:16;100124.22;;;17.89;70.00
62800;BME280;48842;51.046;13.796;2022-10-16T00:23:42;100133.94;;;17.89;69.96
62800;BME280;48842;51.046;13.796;2022-10-16T00:26:11;100135.72;;;17.88;69.98
62800;BME280;48842;51.046;13.796;2022-10-16T00:28:37;100131.28;;;17.90;70.05
62800;BME280;48842;51.046;13.796;2022-10-16T00:31:07;100131.28;;;17.90;69.88
62800;BME280;48842;51.046;13.796;2022-10-16T00:33:34;100135.66;;;17.91;69.96
62800;BME280;48842;51.046;13.796;2022-10-16T00:36:00;100134.78;;;17.91;69.90
62800;BME280;48842;51.046;13.796;2022-10-16T00:38:26;100126.00;;;17.90;69.99
62800;BME280;48842;51.046;13.796;2022-10-16T00:40:51;100128.63;;;17.90;69.96
62800;BME280;48842;51.046;13.796;2022-10-16T00:43:48;100134.81;;;17.89;69.95
62800;BME280;48842;51.046;13.796;2022-10-16T00:46:46;100144.56;;;17.89;70.07
62800;BME280;48842;51.046;13.796;2022-10-16T00:49:16;100145.41;;;17.89;70.05
62800;BME280;48842;51.046;13.796;2022-10-16T00:51:46;100142.75;;;17.89;69.98
62800;BME280;48842;51.046;13.796;2022-10-16T00:54:24;100148.09;;;17.88;70.03
62800;BME280;48842;51.046;13.796;2022-10-16T00:56:50;100153.41;;;17.88;69.92
62800;BME280;48842;51.046;13.796;2022-10-16T00:59:20;100155.19;;;17.87;70.06
62800;BME280;48842;51.046;13.796;2022-10-16T01:01:47;100146.38;;;17.87;70.03
62800;BME280;48842;51.046;13.796;2022-10-16T01:04:12;100151.72;;;17.85;70.06
62800;BME280;48842;51.046;13.796;2022-10-16T01:07:06;100146.41;;;17.85;70.25
62800;BME280;48842;51.046;13.796;2022-10-16T01:10:03;100147.25;;;17.87;70.12
62800;BME280;48842;51.046;13.796;2022-10-16T01:12:36;100149.00;;;17.87;69.91
62800;BME280;48842;51.046;13.796;2022-10-16T01:21:01;100150.72;;;17.89;70.26
62800;BME280;48842;51.046;13.796;2022-10-16T01:26:38;100153.31;;;17.92;70.36
62800;BME280;48842;51.046;13.796;2022-10-16T01:31:44;100157.59;;;17.96;70.33
62800;BME280;48842;51.046;13.796;2022-10-16T01:34:15;100162.81;;;18.00;70.20
62800;BME280;48842;51.046;13.796;2022-10-16T01:36:46;100155.66;;;18.02;70.20
62800;BME280;48842;51.046;13.796;2022-10-16T01:39:13;100167.16;;;18.02;70.49
62800;BME280;48842;51.046;13.796;2022-10-16T01:41:49;100167.97;;;18.04;70.15
62800;BME280;48842;51.046;13.796;2022-10-16T01:44:20;100169.63;;;18.08;70.01
62800;BME280;48842;51.046;13.796;2022-10-16T01:46:48;100173.13;;;18.09;70.27
62800;BME280;48842;51.046;13.796;2022-10-16T01:49:17;100166.00;;;18.11;70.17
62800;BME280;48842;51.046;13.796;2022-10-16T01:51:45;100173.91;;;18.12;70.09
62800;BME280;48842;51.046;13.796;2022-10-16T01:54:13;100169.38;;;18.16;69.89
62800;BME280;48842;51.046;13.796;2022-10-16T01:56:39;100164.97;;;18.17;69.80
62800;BME280;48842;51.046;13.796;2022-10-16T01:59:10;100155.22;;;18.17;69.74
62800;BME280;48842;51.046;13.796;2022-10-16T02:01:38;100166.59;;;18.21;69.79
62800;BME280;48842;51.046;13.796;2022-10-16T02:04:30;100176.34;;;18.20;69.77
62800;BME280;48842;51.046;13.796;2022-10-16T02:06:57;100180.69;;;18.23;69.78
62800;BME280;48842;51.046;13.796;2022-10-16T02:09:22;100176.84;;;18.33;69.37
62800;BME280;48842;51.046;13.796;2022-10-16T02:11:47;100174.03;;;18.38;69.16
62800;BME280;48842;51.046;13.796;2022-10-16T02:14:14;100170.47;;;18.39;69.17
62800;BME280;48842;51.046;13.796;2022-10-16T02:16:44;100182.00;;;18.38;69.17
62800;BME280;48842;51.046;13.796;2022-10-16T02:19:10;100173.13;;;18.39;69.13
62800;BME280;48842;51.046;13.796;2022-10-16T02:22:01;100173.13;;;18.39;69.09
62800;BME280;48842;51.046;13.796;2022-10-16T02:24:33;100179.28;;;18.39;69.10
62800;BME280;48842;51.046;13.796;2022-10-16T02:27:08;100173.97;;;18.39;69.06
62800;BME280;48842;51.046;13.796;2022-10-16T02:29:42;100176.59;;;18.41;69.12
62800;BME280;48842;51.046;13.796;2022-10-16T02:32:15;100175.69;;;18.42;69.04
62800;BME280;48842;51.046;13.796;2022-10-16T02:34:42;100171.19;;;18.44;68.99
62800;BME280;48842;51.046;13.796;2022-10-16T02:37:10;100172.06;;;18.44;68.78
62800;BME280;48842;51.046;13.796;2022-10-16T02:39:35;100166.03;;;18.39;69.15
62800;BME280;48842;51.046;13.796;2022-10-16T02:42:02;100179.34;;;18.38;69.17
62800;BME280;48842;51.046;13.796;2022-10-16T02:44:27;100176.69;;;18.38;69.21
62800;BME280;48842;51.046;13.796;2022-10-16T02:46:52;100179.34;;;18.38;69.16
62800;BME280;48842;51.046;13.796;2022-10-16T02:49:18;100181.94;;;18.39;69.12
62800;BME280;48842;51.046;13.796;2022-10-16T02:51:43;100181.03;;;18.40;69.15
62800;BME280;48842;51.046;13.796;2022-10-16T02:54:08;100172.19;;;18.40;69.19
62800;BME280;48842;51.046;13.796;2022-10-16T02:56:34;100172.13;;;18.43;69.24
62800;BME280;48842;51.046;13.796;2022-10-16T02:58:59;100169.38;;;18.46;68.91
62800;BME280;48842;51.046;13.796;2022-10-16T03:01:24;100175.53;;;18.46;68.98
62800;BME280;48842;51.046;13.796;2022-10-16T03:03:50;100170.13;;;18.49;68.89
62800;BME280;48842;51.046;13.796;2022-10-16T03:06:15;100169.31;;;18.47;68.84
62800;BME280;48842;51.046;13.796;2022-10-16T03:08:40;100164.97;;;18.45;69.00
62800;BME280;48842;51.046;13.796;2022-10-16T03:11:06;100163.13;;;18.47;68.81
62800;BME280;48842;51.046;13.796;2022-10-16T03:13:31;100165.81;;;18.45;68.84
62800;BME280;48842;51.046;13.796;2022-10-16T03:15:56;100168.47;;;18.45;68.66
62800;BME280;48842;51.046;13.796;2022-10-16T03:18:21;100170.28;;;18.45;68.70
62800;BME280;48842;51.046;13.796;2022-10-16T03:20:47;100174.66;;;18.46;68.63
62800;BME280;48842;51.046;13.796;2022-10-16T03:23:12;100181.69;;;18.47;68.61
62800;BME280;48842;51.046;13.796;2022-10-16T03:25:38;100182.53;;;18.49;68.54
62800;BME280;48842;51.046;13.796;2022-10-16T03:28:03;100187.88;;;18.47;68.54
62800;BME280;48842;51.046;13.796;2022-10-16T03:30:29;100187.94;;;18.46;68.51
62800;BME280;48842;51.046;13.796;2022-10-16T03:32:54;100192.34;;;18.45;68.67
62800;BME280;48842;51.046;13.796;2022-10-16T03:35:20;100188.84;;;18.45;68.56
62800;BME280;48842;51.046;13.796;2022-10-16T03:37:46;100188.53;;;18.54;68.17
62800;BME280;48842;51.046;13.796;2022-10-16T03:40:11;100188.50;;;18.56;68.05
62800;BME280;48842;51.046;13.796;2022-10-16T03:42:36;100200.00;;;18.56;68.10
62800;BME280;48842;51.046;13.796;2022-10-16T03:45:02;100195.53;;;18.57;67.85
62800;BME280;48842;51.046;13.796;2022-10-16T03:47:27;100192.94;;;18.55;68.16
62800;BME280;48842;51.046;13.796;2022-10-16T03:49:52;100192.13;;;18.53;68.08
62800;BME280;48842;51.046;13.796;2022-10-16T03:52:17;100194.88;;;18.50;68.28
62800;BME280;48842;51.046;13.796;2022-10-16T03:54:43;100208.16;;;18.48;68.33
62800;BME280;48842;51.046;13.796;2022-10-16T03:57:08;100199.44;;;18.45;68.52
62800;BME280;48842;51.046;13.796;2022-10-16T03:59:33;100202.09;;;18.45;68.53
62800;BME280;48842;51.046;13.796;2022-10-16T04:01:59;100206.50;;;18.46;68.57
62800;BME280;48842;51.046;13.796;2022-10-16T04:04:24;100203.94;;;18.43;68.65
62800;BME280;48842;51.046;13.796;2022-10-16T04:06:50;100205.66;;;18.44;68.51
62800;BME280;48842;51.046;13.796;2022-10-16T04:09:15;100207.50;;;18.42;68.68
62800;BME280;48842;51.046;13.796;2022-10-16T04:11:40;100208.31;;;18.44;68.63
62800;BME280;48842;51.046;13.796;2022-10-16T04:14:06;100207.41;;;18.45;68.65
62800;BME280;48842;51.046;13.796;2022-10-16T04:16:31;100218.13;;;18.42;68.68
62800;BME280;48842;51.046;13.796;2022-10-16T04:18:56;100218.13;;;18.42;68.76
62800;BME280;48842;51.046;13.796;2022-10-16T04:21:21;100223.50;;;18.39;68.91
62800;BME280;48842;51.046;13.796;2022-10-16T04:23:47;100229.72;;;18.38;68.94
62800;BME280;48842;51.046;13.796;2022-10-16T04:26:13;100227.97;;;18.37;68.93
62800;BME280;48842;51.046;13.796;2022-10-16T04:28:38;100234.19;;;18.37;69.01
62800;BME280;48842;51.046;13.796;2022-10-16T04:31:04;100233.28;;;18.37;68.87
62800;BME280;48842;51.046;13.796;2022-10-16T04:33:29;100219.16;;;18.36;68.95
62800;BME280;48842;51.046;13.796;2022-10-16T04:35:59;100220.03;;;18.37;68.99
62800;BME280;48842;51.046;13.796;2022-10-16T04:38:25;100219.16;;;18.36;68.86
62800;BME280;48842;51.046;13.796;2022-10-16T04:40:50;100236.88;;;18.36;68.91
62800;BME280;48842;51.046;13.796;2022-10-16T04:43:15;100236.94;;;18.34;68.95
62800;BME280;48842;51.046;13.796;2022-10-16T04:45:41;100234.31;;;18.33;69.14
62800;BME280;48842;51.046;13.796;2022-10-16T04:48:06;100237.00;;;18.31;69.10
62800;BME280;48842;51.046;13.796;2022-10-16T04:50:31;100233.44;;;18.32;69.07
62800;BME280;48842;51.046;13.796;2022-10-16T04:52:56;100245.88;;;18.30;69.04
62800;BME280;48842;51.046;13.796;2022-10-16T04:55:22;100241.63;;;18.24;69.26
62800;BME280;48842;51.046;13.796;2022-10-16T04:57:50;100241.63;;;18.24;69.23
62800;BME280;48842;51.046;13.796;2022-10-16T05:00:15;100229.25;;;18.23;69.31
62800;BME280;48842;51.046;13.796;2022-10-16T05:02:40;100226.66;;;18.22;69.39
62800;BME280;48842;51.046;13.796;2022-10-16T05:05:06;100223.16;;;18.21;69.31
62800;BME280;48842;51.046;13.796;2022-10-16T05:07:31;100239.88;;;18.23;69.43
62800;BME280;48842;51.046;13.796;2022-10-16T05:09:57;100231.97;;;18.22;69.36
62800;BME280;48842;51.046;13.796;2022-10-16T05:12:22;100232.81;;;18.22;69.38
62800;BME280;48842;51.046;13.796;2022-10-16T05:14:48;100238.13;;;18.22;69.43
62800;BME280;48842;51.046;13.796;2022-10-16T05:17:13;100244.31;;;18.23;69.40
62800;BME280;48842;51.046;13.796;2022-10-16T05:19:38;100234.56;;;18.23;69.38
62800;BME280;48842;51.046;13.796;2022-10-16T05:22:04;100239.03;;;18.23;69.45
62800;BME280;48842;51.046;13.796;2022-10-16T05:24:29;100239.88;;;18.23;69.40
62800;BME280;48842;51.046;13.796;2022-10-16T05:26:54;100246.03;;;18.25;69.36
62800;BME280;48842;51.046;13.796;2022-10-16T05:29:20;100251.31;;;18.25;69.38
62800;BME280;48842;51.046;13.796;2022-10-16T05:31:45;100247.72;;;18.26;69.34
62800;BME280;48842;51.046;13.796;2022-10-16T05:34:11;100253.09;;;18.25;69.49
62800;BME280;48842;51.046;13.796;2022-10-16T05:36:36;100248.66;;;18.25;69.35
62800;BME280;48842;51.046;13.796;2022-10-16T05:39:02;100261.94;;;18.25;69.52
62800;BME280;48842;51.046;13.796;2022-10-16T05:41:27;100260.13;;;18.26;69.29
62800;BME280;48842;51.046;13.796;2022-10-16T05:43:53;100248.66;;;18.25;69.44
62800;BME280;48842;51.046;13.796;2022-10-16T05:46:18;100261.94;;;18.25;69.34
62800;BME280;48842;51.046;13.796;2022-10-16T05:48:44;100265.44;;;18.26;69.52
62800;BME280;48842;51.046;13.796;2022-10-16T05:51:11;100268.09;;;18.26;69.48
62800;BME280;48842;51.046;13.796;2022-10-16T05:53:38;100271.59;;;18.26;69.47
62800;BME280;48842;51.046;13.796;2022-10-16T05:56:05;100272.53;;;18.25;69.53
62800;BME280;48842;51.046;13.796;2022-10-16T05:58:33;100287.50;;;18.26;69.42
62800;BME280;48842;51.046;13.796;2022-10-16T06:01:03;100286.66;;;18.26;69.51
62800;BME280;48842;51.046;13.796;2022-10-16T06:03:28;100298.97;;;18.28;69.63
62800;BME280;48842;51.046;13.796;2022-10-16T06:05:54;100292.00;;;18.24;69.61
62800;BME280;48842;51.046;13.796;2022-10-16T06:08:20;100296.41;;;18.25;69.63
62800;BME280;48842;51.046;13.796;2022-10-16T06:10:47;100296.41;;;18.25;69.63
62800;BME280;48842;51.046;13.796;2022-10-16T06:13:13;100291.09;;;18.25;69.69
62800;BME280;48842;51.046;13.796;2022-10-16T06:15:40;100296.41;;;18.25;69.77
62800;BME280;48842;51.046;13.796;2022-10-16T06:18:09;100301.63;;;18.28;69.67
62800;BME280;48842;51.046;13.796;2022-10-16T06:20:35;100308.63;;;18.29;69.66
62800;BME280;48842;51.046;13.796;2022-10-16T06:23:01;100313.88;;;18.33;69.47
62800;BME280;48842;51.046;13.796;2022-10-16T06:25:26;100313.78;;;18.36;69.62
62800;BME280;48842;51.046;13.796;2022-10-16T06:27:51;100320.72;;;18.40;69.73
62800;BME280;48842;51.046;13.796;2022-10-16T06:30:16;100325.97;;;18.43;69.49
62800;BME280;48842;51.046;13.796;2022-10-16T06:32:42;100317.97;;;18.44;69.54
62800;BME280;48842;51.046;13.796;2022-10-16T06:35:07;100327.59;;;18.47;69.52
62800;BME280;48842;51.046;13.796;2022-10-16T06:37:32;100319.63;;;18.47;69.58
62800;BME280;48842;51.046;13.796;2022-10-16T06:39:57;100325.81;;;18.47;69.52
62800;BME280;48842;51.046;13.796;2022-10-16T06:42:23;100333.69;;;18.51;69.56
62800;BME280;48842;51.046;13.796;2022-10-16T06:44:48;100323.94;;;18.51;69.63
62800;BME280;48842;51.046;13.796;2022-10-16T06:47:13;100328.19;;;18.57;69.58
62800;BME280;48842;51.046;13.796;2022-10-16T06:49:39;100329.91;;;18.59;69.71
62800;BME280;48842;51.046;13.796;2022-10-16T06:52:04;100341.31;;;18.61;69.77
62800;BME280;48842;51.046;13.796;2022-10-16T06:54:29;100346.50;;;18.66;69.68
62800;BME280;48842;51.046;13.796;2022-10-16T06:56:55;100347.25;;;18.71;69.56
62800;BME280;48842;51.046;13.796;2022-10-16T06:59:21;100351.50;;;18.77;69.37
62800;BME280;48842;51.046;13.796;2022-10-16T07:01:46;100354.06;;;18.80;69.37
62800;BME280;48842;51.046;13.796;2022-10-16T07:04:11;100352.09;;;18.88;69.15
62800;BME280;48842;51.046;13.796;2022-10-16T07:06:37;100364.50;;;18.86;69.24
62800;BME280;48842;51.046;13.796;2022-10-16T07:09:04;100362.75;;;18.87;69.19
62800;BME280;48842;51.046;13.796;2022-10-16T07:11:30;100368.00;;;18.88;69.17
62800;BME280;48842;51.046;13.796;2022-10-16T07:13:56;100367.97;;;18.90;69.04
62800;BME280;48842;51.046;13.796;2022-10-16T07:16:23;100371.44;;;18.92;68.94
62800;BME280;48842;51.046;13.796;2022-10-16T07:18:49;100361.63;;;18.94;68.96
62800;BME280;48842;51.046;13.796;2022-10-16T07:21:18;100371.28;;;18.96;69.01
62800;BME280;48842;51.046;13.796;2022-10-16T07:23:44;100366.81;;;18.98;69.06
62800;BME280;48842;51.046;13.796;2022-10-16T07:26:10;100380.91;;;19.00;69.14
62800;BME280;48842;51.046;13.796;2022-10-16T07:28:36;100387.03;;;19.02;68.99
62800;BME280;48842;51.046;13.796;2022-10-16T07:31:02;100399.34;;;19.05;68.73
62800;BME280;48842;51.046;13.796;2022-10-16T07:33:29;100406.34;;;19.08;68.63
62800;BME280;48842;51.046;13.796;2022-10-16T07:35:54;100406.31;;;19.09;68.38
62800;BME280;48842;51.046;13.796;2022-10-16T07:38:21;100422.19;;;19.11;68.21
62800;BME280;48842;51.046;13.796;2022-10-16T07:40:47;100426.59;;;19.12;68.23
62800;BME280;48842;51.046;13.796;2022-10-16T07:43:12;100419.50;;;19.12;68.28
62800;BME280;48842;51.046;13.796;2022-10-16T07:45:46;100424.75;;;19.14;68.28
62800;BME280;48842;51.046;13.796;2022-10-16T07:48:12;100428.25;;;19.16;68.16
62800;BME280;48842;51.046;13.796;2022-10-16T07:50:37;100422.84;;;19.19;68.22
62800;BME280;48842;51.046;13.796;2022-10-16T07:53:03;100434.28;;;19.21;68.03
62800;BME280;48842;51.046;13.796;2022-10-16T07:55:28;100436.03;;;19.22;68.02
62800;BME280;48842;51.046;13.796;2022-10-16T07:57:54;100433.28;;;19.25;67.99
62800;BME280;48842;51.046;13.796;2022-10-16T08:00:19;100434.97;;;19.28;67.90
62800;BME280;48842;51.046;13.796;2022-10-16T08:02:45;100431.25;;;19.33;67.77
62800;BME280;48842;51.046;13.796;2022-10-16T08:05:10;100434.63;;;19.39;67.72
62800;BME280;48842;51.046;13.796;2022-10-16T08:07:35;100438.13;;;19.41;67.63
62800;BME280;48842;51.046;13.796;2022-10-16T08:10:01;100432.81;;;19.41;67.66
62800;BME280;48842;51.046;13.796;2022-10-16T08:12:26;100422.09;;;19.44;67.73
62800;BME280;48842;51.046;13.796;2022-10-16T08:14:52;100409.56;;;19.47;67.77
62800;BME280;48842;51.046;13.796;2022-10-16T08:17:17;100403.34;;;19.48;67.88
62800;BME280;48842;51.046;13.796;2022-10-16T08:19:46;100411.19;;;19.51;67.79
62800;BME280;48842;51.046;13.796;2022-10-16T08:22:11;100422.63;;;19.53;67.82
62800;BME280;48842;51.046;13.796;2022-10-16T08:24:36;100419.84;;;19.58;67.50
62800;BME280;48842;51.046;13.796;2022-10-16T08:27:02;100427.78;;;19.60;67.34
62800;BME280;48842;51.046;13.796;2022-10-16T08:29:28;100416.25;;;19.59;67.23
62800;BME280;48842;51.046;13.796;2022-10-16T08:31:53;100414.44;;;19.61;67.13
62800;BME280;48842;51.046;13.796;2022-10-16T08:34:18;100413.44;;;19.64;67.19
62800;BME280;48842;51.046;13.796;2022-10-16T08:36:44;100416.84;;;19.69;67.14
62800;BME280;48842;51.046;13.796;2022-10-16T08:39:09;100426.50;;;19.71;67.07
62800;BME280;48842;51.046;13.796;2022-10-16T08:47:13;100433.19;;;19.85;66.76
62800;BME280;48842;51.046;13.796;2022-10-16T08:49:41;100429.41;;;19.92;66.52
62800;BME280;48842;51.046;13.796;2022-10-16T08:52:12;100430.16;;;19.96;66.37
62800;BME280;48842;51.046;13.796;2022-10-16T08:54:43;100437.13;;;20.00;66.34
62800;BME280;48842;51.046;13.796;2022-10-16T08:57:17;100435.31;;;20.02;66.32
62800;BME280;48842;51.046;13.796;2022-10-16T08:59:43;100439.63;;;20.04;66.10
62800;BME280;48842;51.046;13.796;2022-10-16T09:05:57;100420.09;;;20.05;66.06
62800;BME280;48842;51.046;13.796;2022-10-16T09:08:28;100422.66;;;20.09;66.21
62800;BME280;48842;51.046;13.796;2022-10-16T09:11:52;100409.34;;;20.09;66.21
62800;BME280;48842;51.046;13.796;2022-10-16T09:14:10;100411.09;;;20.10;66.05
62800;BME280;48842;51.046;13.796;2022-10-16T09:17:01;100414.56;;;20.12;66.11
62800;BME280;48842;51.046;13.796;2022-10-16T09:19:37;100408.28;;;20.14;66.10
62800;BME280;48842;51.046;13.796;2022-10-16T09:22:13;100418.84;;;20.16;66.03
62800;BME280;48842;51.046;13.796;2022-10-16T09:24:39;100417.84;;;20.20;65.91
62800;BME280;48842;51.046;13.796;2022-10-16T09:27:09;100433.69;;;20.23;65.96
62800;BME280;48842;51.046;13.796;2022-10-16T09:29:35;100432.66;;;20.27;65.94
62800;BME280;48842;51.046;13.796;2022-10-16T09:32:13;100441.34;;;20.32;66.05
62800;BME280;48842;51.046;13.796;2022-10-16T09:34:44;100435.84;;;20.37;66.22
62800;BME280;48842;51.046;13.796;2022-10-16T09:37:13;100437.41;;;20.43;66.16
62800;BME280;48842;51.046;13.796;2022-10-16T09:42:16;100447.88;;;20.49;65.85
62800;BME280;48842;51.046;13.796;2022-10-16T09:44:42;100450.31;;;20.55;65.63
62800;BME280;48842;51.046;13.796;2022-10-16T09:47:23;100449.28;;;20.59;65.95
62800;BME280;48842;51.046;13.796;2022-10-16T09:50:01;100448.22;;;20.63;65.59
62800;BME280;48842;51.046;13.796;2022-10-16T09:52:30;100452.56;;;20.67;65.53
62800;BME280;48842;51.046;13.796;2022-10-16T09:55:13;100447.09;;;20.70;65.34
62800;BME280;48842;51.046;13.796;2022-10-16T09:57:52;100444.38;;;20.73;65.31
62800;BME280;48842;51.046;13.796;2022-10-16T10:00:18;100457.56;;;20.77;65.40
62800;BME280;48842;51.046;13.796;2022-10-16T10:02:44;100455.63;;;20.80;65.28
62800;BME280;48842;51.046;13.796;2022-10-16T10:05:20;100458.97;;;20.87;65.20
62800;BME280;48842;51.046;13.796;2022-10-16T10:07:54;100464.97;;;20.92;65.08
62800;BME280;48842;51.046;13.796;2022-10-16T10:10:30;100463.00;;;20.97;65.06
62800;BME280;48842;51.046;13.796;2022-10-16T10:12:57;100464.66;;;21.01;64.60
62800;BME280;48842;51.046;13.796;2022-10-16T10:15:23;100462.78;;;21.03;63.93
62800;BME280;48842;51.046;13.796;2022-10-16T10:17:57;100464.53;;;21.04;62.58
62800;BME280;48842;51.046;13.796;2022-10-16T10:22:53;100473.78;;;21.18;63.05
62800;BME280;48842;51.046;13.796;2022-10-16T10:34:35;100475.97;;;21.30;62.56
62800;BME280;48842;51.046;13.796;2022-10-16T10:40:15;100487.22;;;21.38;62.13
62800;BME280;48842;51.046;13.796;2022-10-16T10:42:55;100487.88;;;21.43;61.87
62800;BME280;48842;51.046;13.796;2022-10-16T10:45:27;100477.84;;;21.52;61.96
62800;BME280;48842;51.046;13.796;2022-10-16T10:50:49;100491.56;;;21.65;61.70
62800;BME280;48842;51.046;13.796;2022-10-16T10:53:36;100490.38;;;21.72;61.85
62800;BME280;48842;51.046;13.796;2022-10-16T10:56:14;100490.06;;;21.79;61.85
62800;BME280;48842;51.046;13.796;2022-10-16T10:58:57;100493.31;;;21.88;61.81
62800;BME280;48842;51.046;13.796;2022-10-16T11:06:44;100485.59;;;22.02;61.10
62800;BME280;48842;51.046;13.796;2022-10-16T11:09:45;100487.19;;;22.06;59.42
62800;BME280;48842;51.046;13.796;2022-10-16T11:12:17;100485.91;;;22.17;59.49
62800;BME280;48842;51.046;13.796;2022-10-16T11:14:54;100478.41;;;22.25;58.22
62800;BME280;48842;51.046;13.796;2022-10-16T11:17:26;100479.00;;;22.33;58.75
62800;BME280;48842;51.046;13.796;2022-10-16T11:19:58;100485.97;;;22.37;57.40
62800;BME280;48842;51.046;13.796;2022-10-16T11:22:36;100489.69;;;22.33;55.74
62800;BME280;48842;51.046;13.796;2022-10-16T11:25:16;100493.63;;;22.45;55.78
62800;BME280;48842;51.046;13.796;2022-10-16T11:30:18;100491.28;;;22.78;55.06
62800;BME280;48842;51.046;13.796;2022-10-16T11:35:37;100476.59;;;22.68;52.40
62800;BME280;48842;51.046;13.796;2022-10-16T11:38:12;100478.19;;;22.93;53.65
62800;BME280;48842;51.046;13.796;2022-10-16T11:40:41;100488.56;;;22.99;53.37
62800;BME280;48842;51.046;13.796;2022-10-16T11:43:14;100487.44;;;23.05;53.17
62800;BME280;48842;51.046;13.796;2022-10-16T11:46:02;100493.50;;;23.08;52.50
62800;BME280;48842;51.046;13.796;2022-10-16T11:48:33;100493.78;;;23.02;52.38
62800;BME280;48842;51.046;13.796;2022-10-16T11:53:45;100497.19;;;23.06;52.14
62800;BME280;48842;51.046;13.796;2022-10-16T11:56:19;100486.91;;;22.96;52.15
62800;BME280;48842;51.046;13.796;2022-10-16T12:01:44;100503.66;;;23.21;52.24
62800;BME280;48842;51.046;13.796;2022-10-16T12:04:33;100501.94;;;23.20;51.81
62800;BME280;48842;51.046;13.796;2022-10-16T12:07:11;100493.41;;;23.30;52.17
62800;BME280;48842;51.046;13.796;2022-10-16T12:09:40;100501.38;;;23.32;52.07
62800;BME280;48842;51.046;13.796;2022-10-16T12:12:24;100502.16;;;23.34;51.60
62800;BME280;48842;51.046;13.796;2022-10-16T12:15:00;100492.97;;;23.40;51.67
62800;BME280;48842;51.046;13.796;2022-10-16T12:17:35;100490.38;;;23.38;51.66
62800;BME280;48842;51.046;13.796;2022-10-16T12:22:55;100505.47;;;23.39;51.31
62800;BME280;48842;51.046;13.796;2022-10-16T12:25:28;100502.94;;;23.36;50.44
62800;BME280;48842;51.046;13.796;2022-10-16T12:28:01;100492.09;;;23.39;50.70
62800;BME280;48842;51.046;13.796;2022-10-16T12:30:30;100499.19;;;23.40;50.72
62800;BME280;48842;51.046;13.796;2022-10-16T12:33:01;100497.44;;;23.39;50.69
62800;BME280;48842;51.046;13.796;2022-10-16T12:35:30;100505.28;;;23.44;50.60
62800;BME280;48842;51.046;13.796;2022-10-16T12:38:12;100503.16;;;23.50;50.76
62800;BME280;48842;51.046;13.796;2022-10-16T12:40:40;100509.31;;;23.52;50.63
62800;BME280;48842;51.046;13.796;2022-10-16T12:43:28;100506.41;;;23.57;50.69
62800;BME280;48842;51.046;13.796;2022-10-16T12:46:21;100512.63;;;23.58;50.63
62800;BME280;48842;51.046;13.796;2022-10-16T12:48:47;100518.72;;;23.61;50.74
62800;BME280;48842;51.046;13.796;2022-10-16T12:51:39;100523.69;;;23.69;51.00
62800;BME280;48842;51.046;13.796;2022-10-16T12:59:41;100518.84;;;23.77;50.88
62800;BME280;48842;51.046;13.796;2022-10-16T13:05:15;100521.28;;;23.82;49.53
62800;BME280;48842;51.046;13.796;2022-10-16T13:07:53;100521.59;;;23.95;50.18
62800;BME280;48842;51.046;13.796;2022-10-16T13:16:13;100524.63;;;23.87;49.05
62800;BME280;48842;51.046;13.796;2022-10-16T13:21:32;100519.84;;;23.94;49.40
62800;BME280;48842;51.046;13.796;2022-10-16T13:26:57;100532.59;;;23.88;49.15
62800;BME280;48842;51.046;13.796;2022-10-16T13:29:32;100527.75;;;23.97;49.49
62800;BME280;48842;51.046;13.796;2022-10-16T13:32:00;100524.75;;;24.03;49.57
62800;BME280;48842;51.046;13.796;2022-10-16T13:34:31;100527.28;;;24.06;49.65
62800;BME280;48842;51.046;13.796;2022-10-16T13:36:57;100523.91;;;24.02;49.56
62800;BME280;48842;51.046;13.796;2022-10-16T13:39:27;100518.63;;;24.01;49.66
62800;BME280;48842;51.046;13.796;2022-10-16T13:42:12;100525.91;;;23.97;49.56
62800;BME280;48842;51.046;13.796;2022-10-16T13:44:44;100526.06;;;23.94;49.94
62800;BME280;48842;51.046;13.796;2022-10-16T13:47:19;100526.38;;;23.88;49.82
62800;BME280;48842;51.046;13.796;2022-10-16T13:49:44;100527.59;;;23.81;50.20
62800;BME280;48842;51.046;13.796;2022-10-16T13:52:20;100533.31;;;23.73;50.53
62800;BME280;48842;51.046;13.796;2022-10-16T13:54:46;100535.31;;;23.68;51.73
62800;BME280;48842;51.046;13.796;2022-10-16T13:57:15;100539.31;;;23.59;53.75
62800;BME280;48842;51.046;13.796;2022-10-16T13:59:41;100545.81;;;23.53;54.43
62800;BME280;48842;51.046;13.796;2022-10-16T14:02:27;100542.34;;;23.51;55.49
62800;BME280;48842;51.046;13.796;2022-10-16T14:04:55;100543.13;;;23.53;56.87
62800;BME280;48842;51.046;13.796;2022-10-16T14:07:26;100548.31;;;23.57;56.92
62800;BME280;48842;51.046;13.796;2022-10-16T14:09:54;100544.72;;;23.58;57.35
62800;BME280;48842;51.046;13.796;2022-10-16T14:12:21;100550.06;;;23.58;57.23